createdAt,value
2023-01-18T00:01:22.607Z,33.30
2023-01-18T00:03:51.016Z,38.20
2023-01-18T00:06:19.608Z,35.80
2023-01-18T00:08:48.005Z,37.70
2023-01-18T00:11:18.484Z,36.70
2023-01-18T00:13:48.234Z,31.60
2023-01-18T00:16:20.072Z,30.70
2023-01-18T00:18:53.749Z,30.70
2023-01-18T00:21:23.207Z,29.20
2023-01-18T00:23:51.541Z,32.80
2023-01-18T00:26:19.983Z,28.10
2023-01-18T00:28:48.329Z,28.10
2023-01-18T00:31:21.449Z,32.00
2023-01-18T00:33:50.647Z,23.50
2023-01-18T00:36:19.799Z,26.70
2023-01-18T00:38:52.171Z,29.80
2023-01-18T00:41:21.888Z,25.80
2023-01-18T00:43:51.646Z,24.20
2023-01-18T00:46:27.563Z,24.70
2023-01-18T00:48:57.335Z,30.00
2023-01-18T00:51:25.991Z,24.80
2023-01-18T00:53:54.307Z,26.00
2023-01-18T00:56:23.268Z,24.10
2023-01-18T00:58:51.738Z,26.20
2023-01-18T01:01:20.237Z,29.60
2023-01-18T01:04:07.709Z,23.30
2023-01-18T01:06:46.097Z,32.10
2023-01-18T01:09:25.015Z,20.40
2023-01-18T01:12:12.854Z,34.30
2023-01-18T01:15:04.639Z,28.40
2023-01-18T01:17:55.814Z,27.90
2023-01-18T01:20:44.424Z,32.30
2023-01-18T01:23:41.180Z,24.00
2023-01-18T01:26:11.728Z,28.50
2023-01-18T01:28:44.172Z,28.90
2023-01-18T01:31:15.545Z,26.50
2023-01-18T01:33:46.126Z,26.10
2023-01-18T01:36:18.526Z,32.60
2023-01-18T01:38:47.386Z,28.40
2023-01-18T01:41:29.709Z,28.20
2023-01-18T01:44:24.505Z,28.70
2023-01-18T01:46:58.638Z,26.50
2023-01-18T01:49:46.234Z,30.50
2023-01-18T01:52:22.560Z,27.40
2023-01-18T01:54:59.699Z,95.70
2023-01-18T01:57:55.856Z,65.70
2023-01-18T02:00:24.643Z,41.50
2023-01-18T02:03:03.539Z,30.80
2023-01-18T02:05:35.568Z,24.40
2023-01-18T02:08:04.350Z,28.80
2023-01-18T02:10:32.780Z,31.40
2023-01-18T02:13:01.553Z,27.00
2023-01-18T02:16:09.855Z,29.00
2023-01-18T02:19:13.605Z,28.20
2023-01-18T02:21:57.250Z,28.40
2023-01-18T02:24:44.078Z,26.40
2023-01-18T02:27:24.688Z,28.70
2023-01-18T02:30:32.480Z,31.10
2023-01-18T02:33:12.372Z,32.70
2023-01-18T02:35:57.823Z,33.10
2023-01-18T02:38:36.790Z,34.20
2023-01-18T02:41:52.150Z,35.40
2023-01-18T02:44:48.971Z,26.70
2023-01-18T02:47:17.864Z,25.60
2023-01-18T02:49:46.240Z,32.40
2023-01-18T02:52:47.606Z,25.80
2023-01-18T02:55:31.080Z,29.80
2023-01-18T02:58:09.710Z,30.80
2023-01-18T03:00:44.400Z,29.00
2023-01-18T03:03:13.722Z,28.30
2023-01-18T03:05:44.770Z,32.20
2023-01-18T03:08:51.307Z,28.00
2023-01-18T03:11:58.910Z,29.10
2023-01-18T03:14:40.886Z,31.10
2023-01-18T03:17:25.397Z,36.40
2023-01-18T03:20:07.939Z,30.50
2023-01-18T03:22:56.427Z,28.60
2023-01-18T03:25:37.849Z,31.40
2023-01-18T03:28:30.294Z,32.10
2023-01-18T03:31:22.285Z,27.70
2023-01-18T03:33:59.204Z,32.80
2023-01-18T03:36:33.100Z,30.60
2023-01-18T03:39:10.610Z,33.10
2023-01-18T03:41:48.866Z,29.20
2023-01-18T03:44:35.752Z,37.20
2023-01-18T03:47:06.156Z,32.30
2023-01-18T03:49:35.206Z,29.40
2023-01-18T03:52:37.664Z,35.70
2023-01-18T03:55:17.060Z,29.80
2023-01-18T03:57:54.060Z,29.60
2023-01-18T04:00:22.469Z,34.30
2023-01-18T04:02:50.910Z,33.80
2023-01-18T04:05:19.703Z,33.10
2023-01-18T04:07:48.432Z,33.00
2023-01-18T04:10:17.087Z,28.20
2023-01-18T04:12:45.485Z,39.50
2023-01-18T04:15:13.894Z,31.40
2023-01-18T04:17:42.215Z,30.80
2023-01-18T04:20:11.202Z,34.40
2023-01-18T04:22:39.490Z,35.70
2023-01-18T04:25:08.363Z,31.80
2023-01-18T04:27:36.696Z,30.20
2023-01-18T04:30:06.358Z,31.30
2023-01-18T04:32:34.746Z,30.60
2023-01-18T04:35:03.436Z,28.00
2023-01-18T04:37:34.643Z,32.80
2023-01-18T04:40:03.031Z,34.30
2023-01-18T04:42:31.408Z,29.00
2023-01-18T04:45:00.173Z,30.40
2023-01-18T04:47:29.157Z,34.70
2023-01-18T04:49:57.957Z,30.70
2023-01-18T04:52:26.923Z,28.30
2023-01-18T04:54:55.383Z,26.80
2023-01-18T04:57:23.815Z,31.60
2023-01-18T04:59:52.152Z,30.50
2023-01-18T05:02:20.602Z,26.30
2023-01-18T05:04:49.039Z,32.20
2023-01-18T05:07:17.447Z,29.50
2023-01-18T05:09:45.759Z,31.90
2023-01-18T05:12:14.052Z,31.30
2023-01-18T05:14:42.446Z,35.60
2023-01-18T05:17:10.912Z,31.30
2023-01-18T05:19:40.493Z,28.40
2023-01-18T05:22:08.919Z,35.90
2023-01-18T05:24:37.211Z,34.50
2023-01-18T05:27:06.052Z,32.70
2023-01-18T05:29:34.624Z,34.80
2023-01-18T05:32:03.006Z,31.20
2023-01-18T05:34:31.404Z,32.70
2023-01-18T05:36:59.968Z,33.70
2023-01-18T05:39:28.483Z,31.70
2023-01-18T05:41:58.761Z,31.30
2023-01-18T05:44:28.423Z,31.40
2023-01-18T05:46:57.699Z,30.60
2023-01-18T05:49:26.419Z,30.60
2023-01-18T05:51:55.352Z,30.20
2023-01-18T05:54:23.816Z,32.20
2023-01-18T05:56:52.176Z,34.00
2023-01-18T05:59:20.540Z,34.20
2023-01-18T06:01:48.934Z,31.90
2023-01-18T06:04:17.567Z,39.50
2023-01-18T06:06:46.256Z,35.90
2023-01-18T06:09:14.718Z,30.20
2023-01-18T06:11:43.075Z,33.80
2023-01-18T06:14:11.689Z,31.30
2023-01-18T06:16:40.171Z,37.40
2023-01-18T06:19:08.789Z,34.00
2023-01-18T06:21:37.337Z,35.60
2023-01-18T06:24:06.210Z,35.30
2023-01-18T06:26:34.760Z,35.10
2023-01-18T06:29:03.385Z,34.10
2023-01-18T06:31:31.780Z,33.00
2023-01-18T06:34:00.115Z,33.20
2023-01-18T06:36:29.839Z,38.10
2023-01-18T06:38:58.193Z,34.30
2023-01-18T06:41:26.525Z,37.40
2023-01-18T06:43:55.210Z,39.80
2023-01-18T06:46:23.526Z,33.90
2023-01-18T06:48:51.893Z,29.80
2023-01-18T06:51:22.032Z,27.40
2023-01-18T06:53:50.378Z,33.00
2023-01-18T06:56:18.674Z,29.00
2023-01-18T06:58:47.036Z,27.50
2023-01-18T07:01:15.546Z,32.70
2023-01-18T07:03:43.938Z,29.10
2023-01-18T07:06:12.515Z,23.30
2023-01-18T07:08:42.159Z,25.40
2023-01-18T07:11:13.041Z,28.60
2023-01-18T07:13:43.830Z,23.70
2023-01-18T07:16:17.572Z,29.30
2023-01-18T07:18:48.283Z,25.90
2023-01-18T07:21:18.152Z,28.40
2023-01-18T07:23:46.425Z,25.30
2023-01-18T07:26:17.126Z,24.50
2023-01-18T07:28:46.808Z,23.80
2023-01-18T07:31:16.947Z,24.30
2023-01-18T07:33:45.631Z,23.20
2023-01-18T07:36:14.101Z,22.60
2023-01-18T07:38:42.939Z,23.90
2023-01-18T07:41:14.402Z,22.10
2023-01-18T07:43:44.925Z,21.00
2023-01-18T07:46:20.623Z,18.40
2023-01-18T07:48:49.272Z,21.00
2023-01-18T07:51:17.576Z,24.40
2023-01-18T07:53:45.997Z,23.30
2023-01-18T07:56:17.481Z,21.60
2023-01-18T07:58:46.479Z,23.50
2023-01-18T08:01:18.361Z,21.80
2023-01-18T08:03:48.835Z,20.50
2023-01-18T08:06:26.629Z,21.10
2023-01-18T08:08:57.046Z,19.70
2023-01-18T08:11:25.814Z,20.80
2023-01-18T08:13:54.193Z,23.00
2023-01-18T08:16:22.730Z,21.60
2023-01-18T08:18:51.451Z,23.10
2023-01-18T08:21:19.882Z,18.50
2023-01-18T08:23:48.316Z,20.10
2023-01-18T08:26:16.691Z,19.30
2023-01-18T08:28:45.192Z,21.90
2023-01-18T08:31:19.128Z,19.70
2023-01-18T08:33:49.028Z,20.30
2023-01-18T08:36:21.788Z,23.20
2023-01-18T08:38:57.231Z,20.60
2023-01-18T08:43:59.579Z,18.00
2023-01-18T08:46:28.628Z,19.40
2023-01-18T08:48:59.325Z,19.80
2023-01-18T08:51:27.968Z,18.60
2023-01-18T08:53:57.271Z,21.30
2023-01-18T08:56:27.077Z,18.70
2023-01-18T08:58:56.024Z,26.00
2023-01-18T09:01:24.832Z,30.30
2023-01-18T09:03:58.480Z,26.80
2023-01-18T09:06:32.035Z,28.30
2023-01-18T09:09:01.696Z,20.60
2023-01-18T09:11:30.165Z,18.00
2023-01-18T09:14:01.582Z,21.40
2023-01-18T09:16:31.771Z,20.40
2023-01-18T09:19:01.307Z,22.10
2023-01-18T09:21:29.810Z,23.70
2023-01-18T09:23:59.511Z,22.00
2023-01-18T09:26:30.325Z,24.60
2023-01-18T09:28:58.798Z,20.50
2023-01-18T09:31:28.263Z,20.00
2023-01-18T09:34:09.583Z,21.50
2023-01-18T09:36:46.173Z,19.30
2023-01-18T09:39:14.482Z,20.20
2023-01-18T09:41:49.612Z,20.40
2023-01-18T09:44:32.427Z,17.80
2023-01-18T09:47:25.870Z,19.60
2023-01-18T09:50:00.059Z,22.10
2023-01-18T09:53:12.473Z,21.10
2023-01-18T09:55:51.795Z,17.80
2023-01-18T09:58:43.797Z,18.10
2023-01-18T10:01:19.986Z,19.00
2023-01-18T10:04:18.892Z,21.50
2023-01-18T10:07:05.297Z,27.90
2023-01-18T10:09:40.510Z,26.30
2023-01-18T10:12:33.748Z,24.20
2023-01-18T10:15:17.426Z,24.90
2023-01-18T10:17:47.331Z,26.20
2023-01-18T10:20:24.649Z,23.50
2023-01-18T10:23:01.100Z,25.60
2023-01-18T10:25:39.211Z,30.30
2023-01-18T10:28:25.287Z,25.00
2023-01-18T10:31:37.192Z,30.50
2023-01-18T10:34:18.268Z,38.90
2023-01-18T10:36:56.426Z,33.70
2023-01-18T10:39:34.695Z,37.20
2023-01-18T10:42:13.393Z,37.40
2023-01-18T10:44:41.723Z,28.80
2023-01-18T10:47:12.038Z,33.60
2023-01-18T10:49:43.935Z,29.40
2023-01-18T10:52:29.749Z,29.00
2023-01-18T10:57:36.995Z,25.00
2023-01-18T11:00:12.449Z,27.80
2023-01-18T11:02:45.216Z,31.20
2023-01-18T11:05:27.658Z,28.60
2023-01-18T11:08:25.385Z,25.70
2023-01-18T11:11:48.474Z,24.10
2023-01-18T11:14:30.689Z,26.10
2023-01-18T11:17:11.465Z,27.90
2023-01-18T11:19:41.768Z,26.10
2023-01-18T11:22:16.972Z,25.40
2023-01-18T11:24:45.860Z,22.70
2023-01-18T11:27:23.166Z,30.50
2023-01-18T11:29:51.960Z,28.70
2023-01-18T11:32:28.145Z,28.90
2023-01-18T11:35:00.078Z,25.90
2023-01-18T11:37:37.636Z,24.40
2023-01-18T11:40:29.443Z,28.40
2023-01-18T11:43:24.954Z,26.20
2023-01-18T11:46:05.963Z,25.10
2023-01-18T11:49:11.572Z,26.30
2023-01-18T11:51:51.557Z,24.20
2023-01-18T11:54:38.548Z,25.60
2023-01-18T11:57:10.307Z,25.90
2023-01-18T11:59:45.703Z,27.50
2023-01-18T12:05:52.952Z,29.60
2023-01-18T12:09:05.965Z,23.00
2023-01-18T12:12:18.524Z,24.00
2023-01-18T12:15:29.197Z,23.80
2023-01-18T12:18:42.354Z,26.40
2023-01-18T12:21:22.328Z,28.80
2023-01-18T12:24:13.038Z,20.20
2023-01-18T12:27:05.579Z,19.10
2023-01-18T12:29:58.222Z,20.10
2023-01-18T12:32:50.534Z,20.50
2023-01-18T12:35:38.575Z,18.20
2023-01-18T12:38:24.304Z,21.80
2023-01-18T12:41:18.211Z,24.30
2023-01-18T12:44:25.497Z,36.00
2023-01-18T12:47:35.118Z,58.20
2023-01-18T12:50:16.599Z,57.00
2023-01-18T12:52:53.566Z,70.70
2023-01-18T12:55:25.662Z,56.70
2023-01-18T12:57:59.975Z,35.10
2023-01-18T13:00:35.393Z,44.30
2023-01-18T13:03:11.906Z,28.50
2023-01-18T13:05:57.980Z,39.00
2023-01-18T13:08:53.750Z,36.70
2023-01-18T13:11:30.776Z,27.70
2023-01-18T13:14:17.465Z,23.60
2023-01-18T13:17:05.425Z,41.20
2023-01-18T13:19:44.464Z,44.90
2023-01-18T13:22:35.751Z,41.80
2023-01-18T13:25:42.044Z,60.30
2023-01-18T13:28:18.293Z,56.50
2023-01-18T13:31:02.003Z,55.50
2023-01-18T13:33:45.522Z,41.10
2023-01-18T13:36:19.402Z,62.80
2023-01-18T13:38:58.292Z,53.30
2023-01-18T13:41:31.135Z,50.60
2023-01-18T13:44:01.502Z,61.60
2023-01-18T13:46:35.360Z,51.20
2023-01-18T13:49:38.697Z,52.10
2023-01-18T13:52:33.940Z,53.30
2023-01-18T13:55:24.931Z,52.90
2023-01-18T13:57:55.519Z,54.20
2023-01-18T14:00:26.065Z,48.80
2023-01-18T14:03:15.541Z,44.80
2023-01-18T14:05:46.615Z,44.00
2023-01-18T14:08:30.699Z,44.10
2023-01-18T14:11:11.061Z,48.80
2023-01-18T14:13:45.328Z,41.80
2023-01-18T14:16:26.012Z,42.00
2023-01-18T14:19:02.088Z,41.70
2023-01-18T14:21:52.260Z,46.80
2023-01-18T14:24:47.595Z,45.00
2023-01-18T14:27:25.038Z,40.60
2023-01-18T14:30:16.806Z,52.40
2023-01-18T14:32:59.134Z,48.80
2023-01-18T14:35:27.776Z,45.00
2023-01-18T14:38:18.849Z,66.60
2023-01-18T14:40:51.410Z,81.90
2023-01-18T14:43:30.777Z,50.40
2023-01-18T14:46:21.424Z,43.20
2023-01-18T14:48:55.683Z,38.60
2023-01-18T14:51:28.149Z,40.20
2023-01-18T14:54:02.081Z,38.30
2023-01-18T14:56:39.910Z,36.70
2023-01-18T14:59:33.328Z,33.70
2023-01-18T15:02:20.419Z,32.20
2023-01-18T15:04:49.573Z,33.50
2023-01-18T15:07:33.962Z,39.20
2023-01-18T15:10:03.562Z,36.50
2023-01-18T15:12:32.976Z,38.80
2023-01-18T15:15:43.400Z,40.70
2023-01-18T15:18:19.537Z,40.90
2023-01-18T15:21:04.976Z,42.30
2023-01-18T15:23:36.649Z,43.10
2023-01-18T15:26:06.247Z,44.10
2023-01-18T15:28:35.128Z,45.50
2023-01-18T15:31:15.115Z,44.90
2023-01-18T15:33:44.918Z,53.40
2023-01-18T15:36:14.187Z,61.60
2023-01-18T15:38:42.862Z,63.40
2023-01-18T15:41:14.853Z,62.00
2023-01-18T15:43:46.082Z,71.10
2023-01-18T15:46:17.218Z,58.20
2023-01-18T15:48:56.417Z,57.20
2023-01-18T15:51:45.037Z,56.90
2023-01-18T15:54:19.674Z,58.30
2023-01-18T15:56:48.730Z,48.10
2023-01-18T15:59:26.232Z,47.70
2023-01-18T16:02:15.929Z,49.30
2023-01-18T16:04:45.526Z,44.10
2023-01-18T16:07:43.447Z,48.80
2023-01-18T16:10:17.827Z,41.00
2023-01-18T16:12:47.012Z,42.60
2023-01-18T16:15:30.632Z,46.40
2023-01-18T16:18:06.415Z,46.60
2023-01-18T16:20:36.083Z,46.50
2023-01-18T16:23:19.760Z,51.70
2023-01-18T16:25:53.342Z,49.70
2023-01-18T16:28:23.121Z,56.10
2023-01-18T16:30:53.616Z,49.80
2023-01-18T16:33:22.239Z,54.90
2023-01-18T16:35:50.966Z,54.80
2023-01-18T16:38:20.394Z,50.80
2023-01-18T16:40:51.079Z,48.50
2023-01-18T16:43:19.943Z,55.50
2023-01-18T16:45:51.428Z,60.30
2023-01-18T16:48:24.309Z,54.60
2023-01-18T16:50:55.878Z,56.30
2023-01-18T16:53:24.227Z,66.40
2023-01-18T16:56:18.535Z,56.30
2023-01-18T16:58:47.180Z,57.90
2023-01-18T17:01:16.399Z,57.60
2023-01-18T17:03:44.937Z,55.50
2023-01-18T17:06:22.562Z,57.60
2023-01-18T17:08:50.911Z,57.80
2023-01-18T17:11:19.243Z,74.70
2023-01-18T17:13:47.795Z,63.00
2023-01-18T17:16:19.092Z,61.10
2023-01-18T17:18:48.171Z,73.40
2023-01-18T17:21:16.515Z,67.40
2023-01-18T17:23:45.363Z,68.80
2023-01-18T17:26:17.732Z,68.70
2023-01-18T17:28:46.142Z,67.00
2023-01-18T17:31:14.504Z,57.00
2023-01-18T17:33:43.789Z,50.50
2023-01-18T17:36:12.151Z,55.50
2023-01-18T17:38:40.636Z,54.20
2023-01-18T17:41:27.774Z,49.50
2023-01-18T17:43:57.181Z,50.00
2023-01-18T17:46:25.708Z,50.60
2023-01-18T17:48:54.109Z,127.80
2023-01-18T17:51:22.744Z,73.80
2023-01-18T17:53:51.183Z,60.40
2023-01-18T17:56:19.547Z,54.00
2023-01-18T17:58:49.316Z,50.10
2023-01-18T18:01:19.021Z,48.10
2023-01-18T18:03:50.715Z,46.60
2023-01-18T18:06:30.048Z,45.70
2023-01-18T18:09:01.481Z,43.70
2023-01-18T18:11:29.952Z,61.10
2023-01-18T18:13:59.047Z,56.40
2023-01-18T18:16:27.815Z,67.90
2023-01-18T18:18:58.135Z,128.20
2023-01-18T18:21:27.255Z,57.30
2023-01-18T18:23:55.651Z,96.10
2023-01-18T18:26:24.011Z,77.10
2023-01-18T18:28:52.581Z,67.10
2023-01-18T18:31:21.623Z,60.00
2023-01-18T18:33:49.973Z,56.10
2023-01-18T18:36:18.284Z,54.80
2023-01-18T18:38:46.685Z,54.30
2023-01-18T18:41:15.025Z,44.30
2023-01-18T18:43:43.315Z,50.20
2023-01-18T18:46:11.706Z,45.90
2023-01-18T18:48:40.163Z,44.10
2023-01-18T18:51:08.566Z,46.30
2023-01-18T18:53:39.727Z,49.20
2023-01-18T18:56:11.849Z,55.30
2023-01-18T18:58:40.890Z,45.90
2023-01-18T19:01:26.361Z,50.70
2023-01-18T19:03:58.776Z,50.20
2023-01-18T19:06:27.903Z,44.40
2023-01-18T19:08:57.330Z,44.10
2023-01-18T19:11:25.827Z,43.10
2023-01-18T19:13:55.781Z,43.60
2023-01-18T19:16:24.287Z,41.00
2023-01-18T19:18:52.702Z,41.10
2023-01-18T19:21:20.980Z,40.10
2023-01-18T19:23:49.331Z,40.90
2023-01-18T19:26:18.347Z,39.20
2023-01-18T19:28:47.234Z,42.70
2023-01-18T19:31:15.746Z,43.50
2023-01-18T19:33:44.066Z,41.50
2023-01-18T19:36:15.927Z,45.70
2023-01-18T19:38:48.028Z,39.80
2023-01-18T19:41:19.059Z,44.20
2023-01-18T19:43:50.387Z,40.00
2023-01-18T19:46:20.215Z,48.00
2023-01-18T19:48:48.761Z,43.30
2023-01-18T19:51:22.384Z,39.60
2023-01-18T19:53:56.295Z,47.60
2023-01-18T19:56:25.709Z,92.70
2023-01-18T19:58:54.079Z,46.20
2023-01-18T20:01:35.272Z,41.90
2023-01-18T20:04:06.696Z,41.50
2023-01-18T20:06:38.374Z,39.90
2023-01-18T20:09:18.576Z,36.30
2023-01-18T20:11:49.170Z,37.40
2023-01-18T20:14:18.533Z,43.20
2023-01-18T20:16:48.004Z,40.60
2023-01-18T20:19:17.691Z,38.60
2023-01-18T20:21:46.469Z,49.90
2023-01-18T20:24:14.905Z,50.00
2023-01-18T20:26:43.767Z,44.50
2023-01-18T20:29:13.179Z,48.90
2023-01-18T20:31:44.586Z,49.30
2023-01-18T20:36:46.100Z,56.90
2023-01-18T20:39:14.742Z,51.00
2023-01-18T20:41:43.660Z,59.30
2023-01-18T20:44:12.409Z,56.80
2023-01-18T20:46:40.723Z,51.80
2023-01-18T20:49:09.130Z,50.10
2023-01-18T20:51:40.289Z,45.10
2023-01-18T20:54:08.669Z,53.50
2023-01-18T20:56:37.052Z,55.80
2023-01-18T20:59:05.367Z,52.40
2023-01-18T21:01:34.066Z,49.80
2023-01-18T21:04:04.686Z,51.40
2023-01-18T21:06:33.645Z,45.60
2023-01-18T21:09:02.382Z,46.00
2023-01-18T21:11:32.288Z,44.10
2023-01-18T21:14:00.668Z,47.10
2023-01-18T21:16:29.055Z,48.10
2023-01-18T21:18:59.379Z,46.60
2023-01-18T21:21:29.355Z,51.10
2023-01-18T21:23:58.447Z,48.80
2023-01-18T21:26:27.892Z,51.80
2023-01-18T21:28:56.472Z,49.60
2023-01-18T21:31:25.137Z,56.90
2023-01-18T21:33:54.904Z,56.80
2023-01-18T21:36:23.306Z,53.70
2023-01-18T21:38:51.862Z,59.80
2023-01-18T21:41:39.163Z,54.10
2023-01-18T21:44:26.215Z,56.30
2023-01-18T21:46:54.615Z,60.60
2023-01-18T21:52:48.982Z,54.30
2023-01-18T21:55:18.625Z,55.40
2023-01-18T21:58:06.987Z,57.50
2023-01-18T22:00:40.067Z,64.00
2023-01-18T22:03:09.808Z,51.20
2023-01-18T22:05:40.927Z,161.10
2023-01-18T22:08:10.111Z,64.10
2023-01-18T22:10:38.616Z,50.80
2023-01-18T22:13:07.203Z,56.50
2023-01-18T22:15:35.611Z,54.80
2023-01-18T22:18:04.253Z,56.60
2023-01-18T22:20:32.671Z,51.10
2023-01-18T22:23:00.969Z,59.10
2023-01-18T22:25:29.304Z,65.10
2023-01-18T22:27:58.040Z,61.70
2023-01-18T22:30:26.619Z,49.80
2023-01-18T22:32:54.900Z,69.50
2023-01-18T22:35:23.211Z,59.00
2023-01-18T22:37:51.529Z,64.00
2023-01-18T22:40:19.851Z,46.80
2023-01-18T22:42:48.139Z,42.10
2023-01-18T22:45:16.420Z,38.90
2023-01-18T22:47:45.165Z,43.80
2023-01-18T22:50:13.459Z,42.60
2023-01-18T22:52:41.785Z,45.60
2023-01-18T22:55:10.371Z,44.80
2023-01-18T22:57:38.742Z,38.70
2023-01-18T23:00:09.848Z,48.00
2023-01-18T23:02:38.331Z,45.20
2023-01-18T23:05:07.506Z,48.20
2023-01-18T23:07:35.799Z,45.40
2023-01-18T23:10:04.532Z,49.60
2023-01-18T23:12:32.924Z,47.50
2023-01-18T23:15:19.791Z,51.70
2023-01-18T23:17:48.115Z,51.60
2023-01-18T23:20:16.517Z,59.10
2023-01-18T23:22:45.766Z,46.90
2023-01-18T23:25:14.097Z,49.20
2023-01-18T23:27:42.476Z,57.20
2023-01-18T23:30:11.658Z,53.20
2023-01-18T23:32:40.192Z,49.80
2023-01-18T23:35:08.806Z,58.60
2023-01-18T23:37:37.098Z,52.00
2023-01-18T23:40:25.140Z,43.90
2023-01-18T23:43:12.584Z,59.60
2023-01-18T23:46:01.392Z,55.20
2023-01-18T23:48:48.370Z,53.30
2023-01-18T23:51:35.125Z,54.00
2023-01-18T23:54:18.763Z,59.20
2023-01-18T23:56:47.788Z,50.70
2023-01-18T23:59:16.139Z,52.80
